Terminal Aerodrome Forecast
Issued by NWS

Current Version | Previous Version | Graphics & Text | Print | Product List | Glossary On
Versions: 1 2 3 4 5 6 7 8 9 10 11 12 13 14 15 16 17 18 19 20
000
FTUS41 KILN 161300 AAA
TAFLCK
TAF AMD
KLCK 161336Z 1614/1712 22008KT P6SM VCSH BKN015 OVC035
      TEMPO 1614/1615 5SM -SHRA BR
     FM161500 23012KT P6SM VCSH OVC012
     FM161700 24014G24KT P6SM VCSH OVC012
     FM170600 27013KT P6SM OVC015=

USA.gov is the U.S. government's official web portal to all federal, state and local government web resources and services.